Time;durP1;ratioP1;P1;durP2;ratioP2;P2;SDS_P1;SDS_P2;PMS_P1;PMS_P2;Temp;Humidity;BMP_temperature;BMP_pressure;BME280_temperature;BME280_humidity;BME280_pressure;Samples;Min_cycle;Max_cycle;Signal;HPM_P1;HPM_P2
2022/06/13 00:00:32;;;;;;;4.28;3.33;;;;;;;18.28;61.54;99138.90;1701775;82;21019;-74
2022/06/13 00:03:00;;;;;;;4.03;3.15;;;;;;;18.18;62.10;99134.58;1707690;83;20860;-73
2022/06/13 00:05:28;;;;;;;3.83;3.50;;;;;;;18.11;62.50;99145.45;1706104;83;20943;-76
2022/06/13 00:07:55;;;;;;;3.75;3.20;;;;;;;18.03;63.05;99142.23;1700738;82;21074;-73
2022/06/13 00:10:22;;;;;;;5.15;3.42;;;;;;;17.96;63.47;99138.81;1685549;83;20959;-73
2022/06/13 00:12:50;;;;;;;3.27;3.02;;;;;;;17.92;63.83;99137.09;1713180;82;20987;-76
2022/06/13 00:15:18;;;;;;;3.77;3.47;;;;;;;17.91;64.11;99139.47;1713361;82;20978;-73
2022/06/13 00:17:46;;;;;;;6.03;3.02;;;;;;;17.88;64.30;99129.98;1712696;82;21485;-73
2022/06/13 00:20:13;;;;;;;3.60;3.30;;;;;;;17.86;64.55;99139.33;1719859;82;20940;-74
2022/06/13 00:22:39;;;;;;;3.55;3.17;;;;;;;17.83;64.69;99139.80;1713468;82;21481;-73
2022/06/13 00:25:08;;;;;;;3.95;3.00;;;;;;;17.81;64.72;99137.83;1705457;82;20959;-73
2022/06/13 00:27:35;;;;;;;3.58;3.27;;;;;;;17.79;64.63;99139.94;1713616;82;21069;-72
2022/06/13 00:30:06;;;;;;;4.03;3.10;;;;;;;17.78;64.58;99134.27;1727720;82;20891;-75
2022/06/13 00:32:32;;;;;;;3.37;3.08;;;;;;;17.75;64.66;99130.13;1716626;82;20867;-73
2022/06/13 00:34:59;;;;;;;3.50;2.85;;;;;;;17.72;64.90;99127.09;1713601;82;20986;-73
2022/06/13 00:37:26;;;;;;;4.67;3.05;;;;;;;17.69;65.09;99124.84;1710810;82;21007;-72
2022/06/13 00:39:54;;;;;;;3.87;3.40;;;;;;;17.67;65.29;99126.94;1707200;82;21449;-75
2022/06/13 00:42:23;;;;;;;4.22;3.12;;;;;;;17.66;65.44;99120.73;1701669;82;22155;-74
2022/06/13 00:45:18;;;;;;;4.00;3.17;;;;;;;17.66;65.47;99118.05;1713700;82;21477;-72
2022/06/13 00:47:49;;;;;;;4.70;3.27;;;;;;;17.67;65.37;99119.70;1713555;82;21029;-75
2022/06/13 00:50:21;;;;;;;4.12;2.87;;;;;;;17.68;65.07;99115.95;1711865;82;21052;-72
2022/06/13 00:53:20;;;;;;;4.78;3.02;;;;;;;17.70;64.94;99111.70;1718486;82;21574;-72
2022/06/13 00:56:12;;;;;;;3.42;3.12;;;;;;;17.73;64.82;99102.64;1701257;82;22100;-74
2022/06/13 00:58:43;;;;;;;7.40;6.70;;;;;;;17.74;64.57;99107.50;1697169;82;20955;-72
2022/06/13 01:01:09;;;;;;;3.75;3.40;;;;;;;17.75;64.42;99105.92;1711955;82;21525;-76
2022/06/13 01:03:37;;;;;;;4.22;3.72;;;;;;;17.76;64.28;99105.41;1713526;82;20954;-73
2022/06/13 01:06:05;;;;;;;3.70;3.02;;;;;;;17.74;64.19;99098.09;1712663;82;20936;-75
2022/06/13 01:08:36;;;;;;;3.45;3.05;;;;;;;17.69;64.25;99103.32;1682562;83;21907;-71
2022/06/13 01:11:16;;;;;;;6.25;3.20;;;;;;;17.67;64.56;99109.45;1708147;83;21413;-72
2022/06/13 01:14:14;;;;;;;4.25;3.80;;;;;;;17.62;64.87;99102.59;1707892;83;21089;-73
2022/06/13 01:16:52;;;;;;;3.83;3.52;;;;;;;17.60;65.12;99100.62;1707928;82;20951;-75
2022/06/13 01:19:51;;;;;;;5.90;3.52;;;;;;;17.54;65.22;99095.64;1708261;84;21473;-72
2022/06/13 01:22:52;;;;;;;3.65;3.37;;;;;;;17.50;65.39;99100.29;1708414;83;24883;-71
2022/06/13 01:25:55;;;;;;;3.80;3.10;;;;;;;17.46;65.50;99095.91;1700714;82;20920;-73
2022/06/13 01:28:54;;;;;;;3.30;3.00;;;;;;;17.44;65.64;99097.17;1708251;83;20903;-72
2022/06/13 01:31:29;;;;;;;3.02;2.83;;;;;;;17.43;65.74;99096.86;1651935;85;20917;-73
2022/06/13 01:34:27;;;;;;;3.22;3.02;;;;;;;17.45;65.79;99094.77;1630676;87;21078;-73
2022/06/13 01:37:05;;;;;;;3.70;3.40;;;;;;;17.55;65.98;99092.41;1625069;86;21204;-73
2022/06/13 01:40:02;;;;;;;3.40;3.20;;;;;;;17.55;65.98;99092.41;1614539;87;21330;-73
2022/06/13 01:42:55;;;;;;;4.05;2.75;;;;;;;17.59;65.80;99096.30;1622512;87;21016;-72
2022/06/13 01:45:44;;;;;;;2.80;2.60;;;;;;;17.62;65.87;99094.52;1631466;85;21691;-72
2022/06/13 01:48:46;;;;;;;3.15;2.83;;;;;;;17.65;66.29;99091.38;1648752;85;20917;-72
2022/06/13 01:51:29;;;;;;;3.22;3.00;;;;;;;17.68;66.40;99090.91;1656462;85;22265;-72
2022/06/13 01:54:08;;;;;;;3.50;3.20;;;;;;;17.62;66.36;99089.97;1656780;86;21020;-72
2022/06/13 01:56:58;;;;;;;4.37;3.98;;;;;;;17.58;66.31;99101.37;1665251;85;21059;-72
2022/06/13 01:59:30;;;;;;;3.98;2.80;;;;;;;17.57;66.29;99089.79;1656653;86;21456;-72
2022/06/13 02:02:05;;;;;;;4.42;2.95;;;;;;;17.55;66.21;99097.27;1656983;85;21004;-74
2022/06/13 02:04:35;;;;;;;3.00;2.80;;;;;;;17.56;66.33;99095.41;1656700;86;21798;-72
2022/06/13 02:07:17;;;;;;;3.70;3.02;;;;;;;17.57;66.43;99087.65;1660815;85;20916;-72
2022/06/13 02:09:55;;;;;;;5.20;2.95;;;;;;;17.52;66.39;99091.50;1671096;84;20887;-75
2022/06/13 02:12:22;;;;;;;4.92;3.10;;;;;;;17.38;66.42;99089.98;1690156;83;20871;-73
2022/06/13 02:14:52;;;;;;;3.55;3.25;;;;;;;17.26;66.74;99098.78;1712975;82;21009;-73
2022/06/13 02:17:22;;;;;;;3.22;2.92;;;;;;;17.20;66.97;99092.14;1713455;82;21218;-73
2022/06/13 02:20:01;;;;;;;5.20;3.00;;;;;;;17.15;67.48;99088.75;1713423;82;21501;-73
2022/06/13 02:22:45;;;;;;;3.30;2.87;;;;;;;17.17;67.90;99090.72;1719721;82;20999;-72
2022/06/13 02:25:26;;;;;;;3.02;2.72;;;;;;;17.19;68.02;99099.38;1683782;82;20947;-73
2022/06/13 02:28:17;;;;;;;7.55;6.72;;;;;;;17.17;68.21;99096.61;1695703;82;20944;-72
2022/06/13 02:31:00;;;;;;;5.05;4.55;;;;;;;17.14;68.07;99101.91;1713542;82;21258;-73
2022/06/13 02:33:35;;;;;;;3.65;3.35;;;;;;;17.10;67.98;99102.03;1722731;82;20959;-74
2022/06/13 02:36:17;;;;;;;5.65;3.40;;;;;;;17.05;68.05;99099.19;1713200;82;20907;-73
2022/06/13 02:38:52;;;;;;;3.45;3.15;;;;;;;17.04;68.08;99108.83;1712561;82;21461;-73
2022/06/13 02:41:22;;;;;;;3.65;3.35;;;;;;;17.00;68.24;99102.23;1698347;82;20895;-73
2022/06/13 02:44:00;;;;;;;3.20;3.00;;;;;;;16.95;68.28;99106.10;1724715;82;21283;-76
2022/06/13 02:46:34;;;;;;;3.45;3.15;;;;;;;16.93;68.11;99116.25;1714099;82;20950;-73
2022/06/13 02:49:14;;;;;;;3.70;3.40;;;;;;;16.87;67.71;99101.83;1713545;82;20895;-73
2022/06/13 02:51:57;;;;;;;3.33;3.02;;;;;;;16.82;67.64;99106.21;1722044;82;20983;-74
2022/06/13 02:54:36;;;;;;;3.52;3.25;;;;;;;16.80;67.73;99110.47;1719750;82;20974;-72
2022/06/13 02:57:27;;;;;;;4.20;3.08;;;;;;;16.81;67.81;99104.07;1725356;82;21140;-76
2022/06/13 03:00:38;;;;;;;7.97;3.35;;;;;;;16.84;68.01;99108.98;1713534;82;20907;-73
2022/06/13 03:03:19;;;;;;;3.20;3.00;;;;;;;16.90;68.40;99110.80;1709715;82;20955;-72
2022/06/13 03:06:00;;;;;;;6.80;2.98;;;;;;;17.05;68.44;99109.94;1712379;82;21094;-73
2022/06/13 03:08:44;;;;;;;3.72;3.17;;;;;;;17.16;68.41;99107.05;1687891;82;21573;-74
2022/06/13 03:11:45;;;;;;;4.65;3.55;;;;;;;17.28;68.37;99108.78;1728348;81;21328;-74
2022/06/13 03:14:34;;;;;;;3.58;3.30;;;;;;;17.42;68.23;99101.92;1702590;82;20940;-74
2022/06/13 03:17:27;;;;;;;3.83;3.50;;;;;;;17.59;67.96;99105.20;1736099;81;21499;-73
2022/06/13 03:20:06;;;;;;;4.47;2.85;;;;;;;17.79;67.56;99107.13;1725161;81;21480;-73
2022/06/13 03:22:55;;;;;;;3.77;3.40;;;;;;;17.98;67.21;99103.90;1737205;81;20860;-74
2022/06/13 03:25:33;;;;;;;4.08;3.50;;;;;;;18.18;66.93;99101.76;1722143;81;21177;-72
2022/06/13 03:28:12;;;;;;;4.25;3.20;;;;;;;18.39;66.57;99103.95;1730255;81;21491;-74
2022/06/13 03:30:58;;;;;;;3.40;3.10;;;;;;;18.62;66.25;99099.70;1727297;81;21035;-73
2022/06/13 03:33:41;;;;;;;3.25;2.95;;;;;;;18.88;65.92;99094.70;1724760;81;21107;-74
2022/06/13 03:36:25;;;;;;;3.35;3.05;;;;;;;19.21;65.36;99091.46;1731312;81;20947;-76
2022/06/13 03:38:56;;;;;;;3.80;3.50;;;;;;;19.58;64.67;99086.62;1730036;82;21290;-73
2022/06/13 03:41:27;;;;;;;5.35;3.00;;;;;;;20.10;63.61;99090.93;1721411;81;20971;-74
2022/06/13 03:43:57;;;;;;;3.25;2.98;;;;;;;20.67;62.10;99090.94;1721382;82;20927;-73
2022/06/13 03:46:34;;;;;;;7.08;3.72;;;;;;;21.22;60.45;99085.63;1728177;81;20899;-74
2022/06/13 03:49:06;;;;;;;3.40;3.10;;;;;;;21.75;58.60;99084.45;1721429;83;20967;-72
2022/06/13 03:51:41;;;;;;;4.30;3.05;;;;;;;22.31;56.78;99067.52;1729349;81;21888;-73
2022/06/13 03:54:13;;;;;;;3.35;2.83;;;;;;;22.87;55.51;99070.20;1730186;82;21058;-73
2022/06/13 03:56:47;;;;;;;3.20;2.58;;;;;;;23.44;53.86;99068.45;1729998;81;20999;-73
2022/06/13 03:59:31;;;;;;;3.22;2.60;;;;;;;24.05;52.39;99069.55;1734594;81;20879;-73
2022/06/13 04:02:01;;;;;;;4.30;3.08;;;;;;;24.72;51.04;99068.58;1725039;81;21009;-74
2022/06/13 04:04:37;;;;;;;6.95;2.83;;;;;;;25.44;49.70;99067.73;1721382;82;21235;-73
2022/06/13 04:07:04;;;;;;;3.15;2.83;;;;;;;26.07;48.52;99066.13;1713254;81;20944;-76
2022/06/13 04:09:43;;;;;;;5.97;2.70;;;;;;;26.75;46.68;99059.46;1653501;84;21549;-73
2022/06/13 04:12:30;;;;;;;8.50;2.83;;;;;;;27.01;45.81;99061.45;1676537;83;21007;-73
2022/06/13 04:15:46;;;;;;;6.03;2.92;;;;;;;26.92;44.99;99062.06;1712580;82;21100;-74
2022/06/13 04:18:21;;;;;;;4.45;2.85;;;;;;;27.21;43.96;99061.25;1712891;82;21637;-73
2022/06/13 04:21:23;;;;;;;6.50;2.92;;;;;;;27.82;42.53;99059.48;1694426;82;20990;-73
2022/06/13 04:24:25;;;;;;;3.25;2.62;;;;;;;28.34;41.55;99054.42;1719381;82;21520;-75
2022/06/13 04:27:17;;;;;;;2.52;2.22;;;;;;;29.00;40.50;99056.95;1712028;82;21010;-72
2022/06/13 04:29:48;;;;;;;3.25;2.25;;;;;;;29.75;39.14;99056.64;1679690;83;20903;-74
2022/06/13 04:32:20;;;;;;;2.50;2.30;;;;;;;30.37;37.38;99044.94;1724816;82;21254;-73
2022/06/13 04:34:50;;;;;;;3.75;2.20;;;;;;;30.93;36.35;99046.33;1712956;82;21070;-74
2022/06/13 04:37:20;;;;;;;2.62;2.05;;;;;;;31.49;35.39;99045.14;1713339;82;20990;-75
2022/06/13 04:39:49;;;;;;;3.90;2.00;;;;;;;32.02;34.20;99038.66;1713444;82;21564;-69
2022/06/13 04:42:16;;;;;;;2.50;2.15;;;;;;;32.61;33.25;99043.44;1712524;82;20986;-68
2022/06/13 04:44:43;;;;;;;3.60;2.00;;;;;;;33.03;33.00;99039.00;1713660;83;21411;-70
2022/06/13 04:47:13;;;;;;;2.62;2.35;;;;;;;33.39;32.54;99039.97;1713344;82;21560;-69
2022/06/13 04:49:51;;;;;;;3.92;2.37;;;;;;;33.78;31.76;99041.03;1691018;83;21507;-74
2022/06/13 04:52:32;;;;;;;3.87;2.58;;;;;;;34.18;30.74;99036.52;1707231;82;20939;-72
2022/06/13 04:55:13;;;;;;;9.60;2.58;;;;;;;34.41;29.88;99037.79;1719377;82;21133;-72
2022/06/13 04:57:39;;;;;;;5.42;2.92;;;;;;;34.55;28.41;99038.30;1698396;82;21204;-73
2022/06/13 05:00:07;;;;;;;7.17;2.22;;;;;;;34.64;28.59;99039.08;1692494;82;20952;-72
2022/06/13 05:02:44;;;;;;;3.67;2.25;;;;;;;35.01;28.59;99040.83;1707060;82;21037;-75
2022/06/13 05:05:36;;;;;;;6.03;2.33;;;;;;;35.42;28.02;99032.16;1699347;82;21015;-75
2022/06/13 05:08:28;;;;;;;13.75;2.52;;;;;;;36.03;27.42;99034.41;1677676;82;21063;-74
2022/06/13 05:11:23;;;;;;;4.87;1.80;;;;;;;36.69;25.69;99030.65;1703186;82;21226;-76
2022/06/13 05:13:55;;;;;;;6.42;2.05;;;;;;;37.16;25.29;99032.97;1673417;83;21013;-79
2022/06/13 05:16:58;;;;;;;5.28;1.90;;;;;;;37.83;24.59;99031.12;1709324;83;21478;-66
2022/06/13 05:19:33;;;;;;;7.33;2.40;;;;;;;38.41;23.96;99030.09;1693589;83;20982;-74
2022/06/13 05:22:28;;;;;;;4.42;1.98;;;;;;;39.02;23.07;99027.96;1694168;82;21077;-72
2022/06/13 05:25:43;;;;;;;9.40;2.35;;;;;;;39.47;22.15;99030.18;1710789;82;21159;-72
2022/06/13 05:28:11;;;;;;;8.73;1.90;;;;;;;39.77;21.64;99028.11;1705247;82;20986;-71
2022/06/13 05:30:48;;;;;;;5.40;2.52;;;;;;;39.77;21.29;99026.72;1706273;82;20958;-73
2022/06/13 05:33:17;;;;;;;8.95;1.90;;;;;;;39.90;21.48;99027.53;1708161;82;21053;-71
2022/06/13 05:35:45;;;;;;;10.80;2.45;;;;;;;40.41;21.19;99027.88;1708352;82;21000;-72
2022/06/13 05:38:30;;;;;;;4.62;2.10;;;;;;;41.01;20.71;99026.44;1707160;82;22506;-72
2022/06/13 05:40:57;;;;;;;7.10;2.40;;;;;;;41.37;20.51;99027.60;1710459;82;20927;-74
2022/06/13 05:43:23;;;;;;;7.22;2.08;;;;;;;41.87;20.14;99024.05;1709762;82;20946;-73
2022/06/13 05:45:50;;;;;;;7.70;1.82;;;;;;;42.19;19.04;99025.05;1706368;82;20975;-71
2022/06/13 05:48:19;;;;;;;4.95;2.08;;;;;;;42.01;19.00;99021.91;1704600;82;21540;-74
2022/06/13 05:50:46;;;;;;;5.17;2.05;;;;;;;42.15;19.07;99020.64;1692532;82;21135;-69
2022/06/13 05:53:16;;;;;;;4.30;1.90;;;;;;;42.49;18.52;99017.81;1709388;82;20915;-72
2022/06/13 05:55:42;;;;;;;8.23;2.25;;;;;;;42.58;18.49;99019.66;1697339;82;20948;-71
2022/06/13 05:58:11;;;;;;;6.00;2.00;;;;;;;42.80;18.54;99018.55;1702221;83;21042;-71
2022/06/13 06:00:41;;;;;;;5.87;2.33;;;;;;;43.23;18.09;99022.23;1709641;82;20986;-72
2022/06/13 06:03:09;;;;;;;6.37;2.25;;;;;;;43.33;17.37;99020.70;1705353;82;21271;-63
2022/06/13 06:05:39;;;;;;;5.55;1.90;;;;;;;43.01;17.76;99015.03;1705448;82;20986;-71
2022/06/13 06:08:17;;;;;;;2.10;1.77;;;;;;;42.88;18.00;99018.77;1714367;82;21430;-72
2022/06/13 06:10:44;;;;;;;4.10;1.77;;;;;;;42.79;17.85;99011.94;1702867;82;20994;-74
2022/06/13 06:13:12;;;;;;;2.67;2.05;;;;;;;42.76;18.15;99012.75;1713148;83;20951;-71
2022/06/13 06:15:41;;;;;;;3.15;1.50;;;;;;;42.75;17.89;99010.55;1699692;82;21868;-71
2022/06/13 06:18:08;;;;;;;2.15;1.40;;;;;;;42.58;17.98;99009.10;1715010;82;21057;-71
2022/06/13 06:20:36;;;;;;;3.05;1.47;;;;;;;42.60;17.61;99002.52;1709439;82;21563;-71
2022/06/13 06:23:06;;;;;;;3.50;1.50;;;;;;;42.57;17.66;99004.10;1706809;82;20943;-72
2022/06/13 06:25:34;;;;;;;2.80;1.47;;;;;;;42.79;17.88;99006.34;1710745;82;21062;-75
2022/06/13 06:28:02;;;;;;;4.97;1.60;;;;;;;43.39;17.59;99005.89;1712701;82;22149;-75
2022/06/13 06:30:29;;;;;;;4.05;1.12;;;;;;;44.05;16.80;99001.44;1712653;82;21002;-72
2022/06/13 06:32:56;;;;;;;6.55;1.42;;;;;;;44.22;16.50;99006.02;1715232;82;21082;-71
2022/06/13 06:35:24;;;;;;;4.80;1.47;;;;;;;44.30;16.23;99004.17;1699404;82;21192;-74
2022/06/13 06:37:52;;;;;;;2.90;1.50;;;;;;;44.45;16.04;98997.33;1712923;82;21452;-73
2022/06/13 06:40:20;;;;;;;3.83;1.25;;;;;;;44.59;16.03;98990.85;1713201;82;21872;-72
2022/06/13 06:42:48;;;;;;;2.40;1.40;;;;;;;44.94;16.04;98995.50;1713085;82;20995;-73
2022/06/13 06:45:14;;;;;;;4.30;2.08;;;;;;;45.31;15.74;98992.25;1707522;82;21077;-71
2022/06/13 06:47:41;;;;;;;3.83;1.30;;;;;;;45.35;15.45;98997.22;1706904;82;20987;-76
2022/06/13 06:50:13;;;;;;;3.05;1.20;;;;;;;45.42;15.52;98995.57;1712720;82;21065;-73
2022/06/13 06:52:41;;;;;;;3.45;1.20;;;;;;;45.55;14.77;98993.22;1713059;83;21132;-72
2022/06/13 07:00:42;;;;;;;4.80;1.42;;;;;;;45.42;14.38;98990.77;1700804;82;21013;-77
2022/06/13 07:03:08;;;;;;;2.55;1.20;;;;;;;45.22;14.59;98987.67;1689935;82;20970;-73
2022/06/13 07:05:35;;;;;;;2.52;1.07;;;;;;;45.29;14.54;98990.44;1703683;82;21265;-73
2022/06/13 07:08:01;;;;;;;2.75;1.25;;;;;;;45.39;14.42;98990.95;1687274;82;20866;-73
2022/06/13 07:10:28;;;;;;;1.47;1.02;;;;;;;45.35;13.92;98982.38;1710033;82;20983;-72
2022/06/13 07:12:54;;;;;;;1.27;1.00;;;;;;;45.23;14.17;98976.64;1699371;82;20999;-72
2022/06/13 07:15:21;;;;;;;1.75;1.05;;;;;;;45.23;14.29;98978.64;1712804;82;21003;-73
2022/06/13 07:17:47;;;;;;;2.33;1.35;;;;;;;45.45;14.24;98978.67;1700713;82;21218;-74
2022/06/13 07:20:15;;;;;;;1.45;1.00;;;;;;;45.97;14.02;98978.77;1711359;82;20939;-70
2022/06/13 07:22:50;;;;;;;2.72;1.07;;;;;;;46.38;13.71;98985.79;1711160;82;20944;-72
2022/06/13 07:25:20;;;;;;;1.75;1.07;;;;;;;46.59;13.34;98984.70;1717297;82;21102;-70
2022/06/13 07:27:46;;;;;;;3.22;1.55;;;;;;;46.52;13.56;98986.19;1708199;83;20959;-71
2022/06/13 07:30:14;;;;;;;3.22;1.60;;;;;;;46.64;13.55;98982.02;1708178;83;22213;-70
2022/06/13 07:32:41;;;;;;;2.45;1.40;;;;;;;46.68;13.74;98985.57;1707787;83;20915;-71
2022/06/13 07:35:08;;;;;;;3.17;1.62;;;;;;;46.65;13.84;98975.96;1708028;83;20994;-71
2022/06/13 07:40:20;;;;;;;3.25;1.82;;;;;;;45.90;14.76;98984.48;1708321;83;20915;-70
2022/06/13 07:42:53;;;;;;;2.33;1.80;;;;;;;45.87;14.48;98983.91;1708086;83;21147;-70
2022/06/13 07:45:23;;;;;;;4.80;1.67;;;;;;;44.93;14.87;98986.87;1708063;83;20982;-69
2022/06/13 07:47:49;;;;;;;4.30;1.72;;;;;;;43.02;16.17;98986.64;1708046;83;20998;-71
2022/06/13 07:50:20;;;;;;;4.25;1.92;;;;;;;41.13;17.86;98984.30;1708165;83;20967;-69
2022/06/13 07:52:49;;;;;;;3.75;2.15;;;;;;;39.45;19.40;98984.42;1708081;83;20975;-70
2022/06/13 07:55:16;;;;;;;1.90;1.30;;;;;;;38.19;20.76;98989.13;1708125;83;21639;-69
2022/06/13 07:57:45;;;;;;;4.95;1.45;;;;;;;37.19;21.10;98984.31;1708074;83;20864;-72
2022/06/13 08:00:26;;;;;;;13.93;1.42;;;;;;;36.09;22.28;98991.47;1708401;83;20932;-70
2022/06/13 08:02:56;;;;;;;2.67;1.40;;;;;;;35.10;23.55;98990.42;1706909;83;20868;-70
2022/06/13 08:05:23;;;;;;;4.92;1.70;;;;;;;34.35;24.16;98983.91;1708105;83;20942;-72
2022/06/13 08:07:49;;;;;;;2.98;1.50;;;;;;;34.32;24.67;98984.58;1685936;83;21245;-70
2022/06/13 08:10:17;;;;;;;2.05;1.42;;;;;;;34.40;24.81;98982.32;1701178;83;21137;-71
2022/06/13 08:12:44;;;;;;;2.85;1.17;;;;;;;34.77;24.80;98981.91;1708017;83;20908;-72
2022/06/13 08:15:12;;;;;;;2.20;1.47;;;;;;;34.95;24.56;98980.58;1707916;83;21092;-69
2022/06/13 08:17:38;;;;;;;3.02;1.50;;;;;;;34.69;24.50;98977.53;1708101;83;21013;-71
2022/06/13 08:20:07;;;;;;;2.05;1.45;;;;;;;35.21;24.50;98976.39;1708129;83;21620;-70
2022/06/13 08:22:46;;;;;;;4.42;1.67;;;;;;;35.78;23.98;98972.71;1707974;83;21445;-70
2022/06/13 08:25:19;;;;;;;3.30;1.70;;;;;;;35.53;23.87;98971.95;1708159;83;21027;-71
2022/06/13 08:27:45;;;;;;;1.72;1.37;;;;;;;35.00;23.98;98974.26;1707832;83;21031;-70
2022/06/13 08:30:12;;;;;;;4.37;1.50;;;;;;;35.29;24.04;98974.10;1708155;83;20990;-69
2022/06/13 08:32:39;;;;;;;2.98;1.42;;;;;;;35.06;24.33;98979.02;1708015;83;22146;-70
2022/06/13 08:35:06;;;;;;;3.55;1.47;;;;;;;35.28;23.93;98968.33;1707932;83;20852;-70
2022/06/13 08:37:35;;;;;;;2.17;1.52;;;;;;;36.10;23.04;98962.65;1708036;83;20991;-70
2022/06/13 08:40:01;;;;;;;3.22;1.45;;;;;;;36.07;23.22;98960.00;1708136;83;20943;-69
2022/06/13 08:42:43;;;;;;;3.75;1.47;;;;;;;35.54;24.30;98965.84;1708109;83;20954;-70
2022/06/13 08:45:21;;;;;;;1.52;1.42;;;;;;;34.81;24.62;98967.07;1708557;83;21168;-74
2022/06/13 08:47:57;;;;;;;5.33;1.45;;;;;;;34.08;25.55;98967.33;1708222;83;20943;-70
2022/06/13 08:50:41;;;;;;;4.50;1.93;;;;;;;33.51;26.58;98968.38;1707818;83;21421;-70
2022/06/13 08:53:23;;;;;;;2.55;1.40;;;;;;;33.14;26.92;98966.47;1708320;83;21042;-70
2022/06/13 08:55:55;;;;;;;5.28;1.40;;;;;;;33.53;26.74;98966.91;1708266;83;20915;-70
2022/06/13 08:58:33;;;;;;;3.17;1.55;;;;;;;35.79;25.05;98949.44;1708230;83;21075;-71
2022/06/13 09:01:17;;;;;;;1.90;1.57;;;;;;;37.08;23.02;98952.97;1708153;83;21039;-70
2022/06/13 09:03:51;;;;;;;1.55;1.17;;;;;;;38.71;21.66;98943.58;1654183;84;20913;-70
2022/06/13 09:06:50;;;;;;;2.92;1.27;;;;;;;40.64;19.37;98946.36;1708460;83;21019;-69
2022/06/13 09:09:22;;;;;;;4.00;1.40;;;;;;;42.14;17.75;98944.40;1708332;83;20975;-70
2022/06/13 09:12:00;;;;;;;2.20;1.45;;;;;;;43.75;16.38;98942.30;1708040;83;20946;-71
2022/06/13 09:14:33;;;;;;;1.90;1.00;;;;;;;44.92;15.81;98941.20;1708191;83;20994;-70
2022/06/13 09:17:23;;;;;;;1.37;0.95;;;;;;;45.97;14.49;98938.62;1708226;83;20931;-71
2022/06/13 09:20:06;;;;;;;2.85;1.60;;;;;;;46.32;13.86;98938.23;1708267;83;20947;-71
2022/06/13 09:22:57;;;;;;;1.87;1.30;;;;;;;46.70;13.66;98930.47;1708393;83;21422;-71
2022/06/13 09:25:40;;;;;;;3.20;1.30;;;;;;;47.16;12.89;98931.83;1708184;83;21853;-70
2022/06/13 09:28:15;;;;;;;4.12;1.10;;;;;;;47.68;12.85;98923.86;1688847;84;20957;-73
2022/06/13 09:30:49;;;;;;;1.15;1.05;;;;;;;47.42;12.79;98929.55;1660104;82;20984;-71
2022/06/13 09:33:31;;;;;;;3.92;1.32;;;;;;;46.21;13.44;98924.11;1708275;82;20924;-71
2022/06/13 09:36:05;;;;;;;2.37;1.42;;;;;;;44.42;14.33;98926.64;1708259;82;20947;-69
2022/06/13 09:38:36;;;;;;;1.75;1.07;;;;;;;42.26;15.70;98925.91;1708189;82;21501;-72
2022/06/13 09:41:20;;;;;;;3.15;1.35;;;;;;;40.35;16.87;98931.06;1708100;82;20907;-73
2022/06/13 09:44:13;;;;;;;3.67;1.67;;;;;;;38.82;18.41;98932.69;1707888;82;21600;-72
2022/06/13 09:46:56;;;;;;;1.87;1.20;;;;;;;38.09;19.50;98932.78;1663070;82;20997;-70
2022/06/13 09:49:38;;;;;;;2.05;1.17;;;;;;;38.93;19.28;98925.93;1707461;82;21417;-70
2022/06/13 09:52:16;;;;;;;1.77;1.30;;;;;;;40.36;18.10;98914.56;1708331;82;21334;-71
2022/06/13 09:55:27;;;;;;;2.58;1.20;;;;;;;40.66;18.03;98911.13;1708261;82;20943;-70
2022/06/13 09:58:34;;;;;;;2.05;1.05;;;;;;;41.05;17.70;98919.88;1708115;82;20947;-71
2022/06/13 10:01:15;;;;;;;1.57;1.05;;;;;;;40.55;17.48;98904.63;1707307;82;20983;-70
2022/06/13 10:04:13;;;;;;;2.20;1.32;;;;;;;39.33;18.95;98906.75;1708004;82;21530;-70
2022/06/13 10:06:50;;;;;;;1.17;1.02;;;;;;;38.47;19.55;98908.37;1706236;82;21842;-69
2022/06/13 10:09:32;;;;;;;4.22;1.32;;;;;;;37.69;20.96;98910.29;1683430;83;21573;-70
2022/06/13 10:12:13;;;;;;;4.03;1.17;;;;;;;37.24;21.90;98909.17;1702229;83;21027;-70
2022/06/13 10:14:48;;;;;;;2.27;1.25;;;;;;;36.70;22.12;98902.86;1688419;83;21003;-70
2022/06/13 10:17:23;;;;;;;1.70;1.00;;;;;;;36.12;22.92;98898.05;1707432;83;21011;-73
2022/06/13 10:20:17;;;;;;;2.25;1.30;;;;;;;35.51;23.20;98888.46;1708319;83;27057;-70
2022/06/13 10:23:05;;;;;;;2.80;1.32;;;;;;;35.02;23.70;98887.66;1719643;82;21008;-70
2022/06/13 10:25:59;;;;;;;1.52;1.27;;;;;;;34.62;24.15;98888.91;1714375;82;20895;-72
2022/06/13 10:28:57;;;;;;;2.65;1.42;;;;;;;34.20;24.46;98881.03;1708273;84;21438;-71
2022/06/13 10:31:52;;;;;;;2.65;1.37;;;;;;;33.85;24.90;98878.55;1708183;83;20935;-69
2022/06/13 10:34:47;;;;;;;3.00;1.10;;;;;;;33.65;25.26;98879.93;1708171;83;21161;-70
2022/06/13 10:37:45;;;;;;;3.58;1.30;;;;;;;33.51;25.75;98881.53;1708074;83;20939;-71
2022/06/13 10:40:13;;;;;;;3.20;1.05;;;;;;;33.50;25.66;98869.69;1708192;83;20916;-73
2022/06/13 10:42:39;;;;;;;4.03;1.35;;;;;;;33.56;25.37;98868.95;1708142;83;21446;-71
2022/06/13 10:45:10;;;;;;;1.90;1.10;;;;;;;33.48;25.57;98860.14;1708240;82;21121;-69
2022/06/13 10:47:54;;;;;;;4.90;1.10;;;;;;;33.44;26.18;98860.59;1708202;83;21140;-69
2022/06/13 10:50:35;;;;;;;1.87;1.47;;;;;;;33.51;25.17;98859.47;1708072;84;21489;-72
2022/06/13 10:53:06;;;;;;;1.20;1.10;;;;;;;33.43;24.47;98854.83;1708194;83;21433;-70
2022/06/13 10:55:38;;;;;;;5.47;1.10;;;;;;;33.38;24.11;98857.22;1707744;84;21461;-69
2022/06/13 10:58:14;;;;;;;1.52;0.90;;;;;;;33.29;23.68;98852.34;1708188;83;20891;-69
2022/06/13 11:00:42;;;;;;;1.60;1.10;;;;;;;33.28;24.47;98850.72;1708386;83;21136;-70
2022/06/13 11:03:16;;;;;;;2.05;1.10;;;;;;;33.23;23.87;98843.21;1708065;83;20990;-69
2022/06/13 11:06:02;;;;;;;2.08;1.15;;;;;;;33.12;24.28;98841.97;1707197;83;21011;-70
2022/06/13 11:08:29;;;;;;;2.42;1.40;;;;;;;33.00;24.27;98844.62;1677919;83;20910;-69
2022/06/13 11:10:58;;;;;;;1.80;0.93;;;;;;;32.76;24.62;98846.03;1708115;83;20903;-69
2022/06/13 11:13:29;;;;;;;2.98;1.20;;;;;;;32.61;25.05;98834.75;1711715;82;21192;-71
2022/06/13 11:24:53;;;;;;;1.30;1.20;;;;;;;32.13;27.46;98828.95;1713823;82;20979;-69
2022/06/13 11:27:41;;;;;;;4.35;1.42;;;;;;;32.09;26.90;98823.06;1713498;82;22069;-69
2022/06/13 11:30:41;;;;;;;1.92;1.20;;;;;;;31.95;27.18;98826.52;1690683;83;20990;-71
2022/06/13 11:33:33;;;;;;;1.85;1.40;;;;;;;31.82;27.07;98820.63;1730078;82;20982;-69
2022/06/13 11:36:18;;;;;;;1.32;1.12;;;;;;;31.69;27.28;98816.36;1716485;82;20970;-68
2022/06/13 11:39:03;;;;;;;1.67;1.10;;;;;;;31.59;27.80;98811.19;1713563;82;20903;-70
2022/06/13 11:41:42;;;;;;;;;;;;;;;31.43;28.50;98807.27;1698538;82;21165;-70
2022/06/13 11:44:19;;;;;;;1.85;1.10;;;;;;;31.36;29.27;98811.06;1713416;82;20416;-69
2022/06/13 11:46:55;;;;;;;1.65;1.17;;;;;;;31.39;28.34;98797.25;1713506;83;21049;-71
2022/06/13 11:49:36;;;;;;;2.22;1.00;;;;;;;31.37;28.45;98796.73;1713546;82;21003;-69
2022/06/13 11:53:35;;;;;;;1.27;1.10;;;;;;;31.44;28.55;98797.09;1713508;83;20927;-70
2022/06/13 11:54:57;;;;;;;3.35;1.05;;;;;;;31.48;27.55;98794.77;1692361;82;21180;-70
2022/06/13 11:57:39;;;;;;;2.47;1.12;;;;;;;31.49;27.08;98790.90;1712822;82;20903;-71
2022/06/13 12:00:19;;;;;;;1.45;0.80;;;;;;;31.46;26.69;98787.42;1713462;82;20939;-68
2022/06/13 12:02:54;;;;;;;2.15;1.15;;;;;;;31.43;26.29;98791.33;1713547;82;20914;-70
2022/06/13 12:05:39;;;;;;;1.27;1.20;;;;;;;31.41;26.07;98775.74;1713491;82;20998;-71
2022/06/13 12:08:22;;;;;;;1.55;1.05;;;;;;;31.42;26.53;98774.03;1690157;82;21266;-69
2022/06/13 12:11:05;;;;;;;1.10;1.00;;;;;;;31.41;26.39;98762.00;1689910;82;20998;-68
2022/06/13 12:13:37;;;;;;;2.00;1.02;;;;;;;31.34;26.30;98759.72;1710190;82;21438;-69
2022/06/13 12:16:35;;;;;;;2.60;1.00;;;;;;;31.19;27.37;98753.34;1708042;83;20951;-68
2022/06/13 12:19:17;;;;;;;1.20;0.95;;;;;;;31.02;26.80;98754.70;1715707;82;21402;-67
2022/06/13 12:22:04;;;;;;;2.98;1.37;;;;;;;30.77;27.93;98745.80;1719946;82;21842;-71
2022/06/13 12:24:54;;;;;;;2.27;1.10;;;;;;;30.43;28.05;98741.84;1690809;83;20915;-70
2022/06/13 12:27:34;;;;;;;1.37;1.20;;;;;;;29.93;28.65;98738.50;1708380;83;20962;-69
2022/06/13 12:30:52;;;;;;;1.80;1.10;;;;;;;29.63;29.65;98737.89;1708431;83;20943;-69
2022/06/13 12:33:57;;;;;;;1.62;1.22;;;;;;;29.56;29.59;98729.86;1694532;83;20950;-68
2022/06/13 12:37:03;;;;;;;1.62;1.10;;;;;;;29.48;29.63;98723.76;1707848;84;21284;-71
2022/06/13 12:39:49;;;;;;;1.75;1.10;;;;;;;29.38;29.99;98722.08;1708339;83;20911;-69